Broadway, Ohio
Current Conditions -  °F | °C
As of 7:13 PM on Wednesday 26 Nov 2014 (Local Time) from KMRT Reporting Station
Overcast Overcast  
Wind Chill: 27°   Ceiling: 2600
Heat Index: 32°   Visibility: 10mi
Dew Point: 24°   Wind: 5mph
Humidity: 73%   Direction: 20°NNE
Pressure: 30.04"   Gusts: NA
Location:  40.34°N, 83.41°W
Report Text: KMRT 270013Z AUTO 02004KT 10SM OVC026 00/M04 A3004 RMK AO2 T00001043
Loading
Personal Weather Stations






























Interactive Weather Map New forecast layout! Learn more

10-Day Weather Forecast

Advertisements
Track Severe Weather on mobile